Time;durP1;ratioP1;P1;durP2;ratioP2;P2;SDS_P1;SDS_P2;PMS_P1;PMS_P2;Temp;Humidity;BMP_temperature;BMP_pressure;BME280_temperature;BME280_humidity;BME280_pressure;Samples;Min_cycle;Max_cycle;Signal;HPM_P1;HPM_P2
2022/07/15 00:01:34;;;;;;;5.65;3.78;;;;;;;;;;10008899;28;20046;-71
2022/07/15 00:06:31;;;;;;;7.00;3.63;;;;;;;;;;10005303;28;20055;-69
2022/07/15 00:11:26;;;;;;;8.13;3.42;;;;;;;;;;10033349;28;20377;-68
2022/07/15 00:16:23;;;;;;;5.68;3.78;;;;;;;;;;10044537;28;20050;-68
2022/07/15 00:21:16;;;;;;;8.38;3.45;;;;;;;;;;10039016;28;20096;-68
2022/07/15 00:26:11;;;;;;;4.47;3.08;;;;;;;;;;10010346;28;20431;-69
2022/07/15 00:31:04;;;;;;;3.78;3.22;;;;;;;;;;10029315;28;20440;-70
2022/07/15 00:35:59;;;;;;;4.00;3.50;;;;;;;;;;10028316;28;20076;-69
2022/07/15 00:40:53;;;;;;;4.00;3.30;;;;;;;;;;10040323;28;20132;-70
2022/07/15 00:45:46;;;;;;;6.32;4.18;;;;;;;;;;10017374;28;20058;-69
2022/07/15 00:50:40;;;;;;;4.07;3.63;;;;;;;;;;10026537;28;20571;-71
2022/07/15 00:55:39;;;;;;;4.95;3.40;;;;;;;;;;10023396;28;20161;-70
2022/07/15 01:00:33;;;;;;;6.05;3.20;;;;;;;;;;10008868;28;20074;-71
2022/07/15 01:05:27;;;;;;;3.80;2.88;;;;;;;;;;10017732;28;20056;-70
2022/07/15 01:10:26;;;;;;;3.17;2.72;;;;;;;;;;10031421;28;20089;-69
2022/07/15 01:15:36;;;;;;;3.78;3.30;;;;;;;;;;10009838;28;20056;-70
2022/07/15 01:20:31;;;;;;;6.15;3.42;;;;;;;;;;10013613;28;20053;-69
2022/07/15 01:25:26;;;;;;;5.45;3.40;;;;;;;;;;10032646;28;20503;-69
2022/07/15 01:30:20;;;;;;;6.47;4.20;;;;;;;;;;10022942;28;20400;-70
2022/07/15 01:35:14;;;;;;;3.35;3.05;;;;;;;;;;10024897;28;20061;-69
2022/07/15 01:40:12;;;;;;;4.17;3.27;;;;;;;;;;10026914;28;20046;-69
2022/07/15 01:45:08;;;;;;;4.93;3.35;;;;;;;;;;10016318;28;20050;-69
2022/07/15 01:50:06;;;;;;;4.95;3.10;;;;;;;;;;10013735;28;20054;-70
2022/07/15 01:55:26;;;;;;;4.15;3.65;;;;;;;;;;10017770;28;20109;-72
2022/07/15 02:00:22;;;;;;;4.90;3.08;;;;;;;;;;10023204;28;20085;-71
2022/07/15 02:05:16;;;;;;;5.82;3.13;;;;;;;;;;10029410;28;20132;-70
2022/07/15 02:10:12;;;;;;;5.57;3.17;;;;;;;;;;10015640;28;20046;-70
2022/07/15 02:15:11;;;;;;;3.33;3.03;;;;;;;;;;10016983;28;20073;-70
2022/07/15 02:20:12;;;;;;;5.07;3.00;;;;;;;;;;10020071;28;20166;-71
2022/07/15 02:25:06;;;;;;;7.50;2.90;;;;;;;;;;10031298;28;20041;-71
2022/07/15 02:29:58;;;;;;;9.05;7.20;;;;;;;;;;10007511;28;20504;-71
2022/07/15 02:34:58;;;;;;;7.90;7.13;;;;;;;;;;10017232;28;20133;-71
2022/07/15 02:39:53;;;;;;;9.23;8.43;;;;;;;;;;10014737;28;20149;-71
2022/07/15 02:44:48;;;;;;;11.32;7.80;;;;;;;;;;10022346;28;20045;-71
2022/07/15 02:49:42;;;;;;;12.63;9.45;;;;;;;;;;10015042;28;20449;-72
2022/07/15 02:54:38;;;;;;;12.57;10.05;;;;;;;;;;10015558;28;20054;-70
2022/07/15 02:59:33;;;;;;;13.02;9.38;;;;;;;;;;10011180;28;20133;-70
2022/07/15 03:04:27;;;;;;;13.32;12.07;;;;;;;;;;10018073;28;20088;-70
2022/07/15 03:09:21;;;;;;;16.50;10.57;;;;;;;;;;10013750;28;20687;-69
2022/07/15 03:14:15;;;;;;;12.82;11.15;;;;;;;;;;10012196;28;20057;-69
2022/07/15 03:19:13;;;;;;;12.77;11.55;;;;;;;;;;10002667;28;20050;-69
2022/07/15 03:24:12;;;;;;;15.75;12.48;;;;;;;;;;10001063;28;20054;-69
2022/07/15 03:29:08;;;;;;;12.98;11.88;;;;;;;;;;10002936;28;20806;-69
2022/07/15 03:34:05;;;;;;;14.48;13.25;;;;;;;;;;10024854;28;20383;-69
2022/07/15 03:38:59;;;;;;;13.25;11.80;;;;;;;;;;10020759;28;20053;-68
2022/07/15 03:43:53;;;;;;;13.45;11.88;;;;;;;;;;10029603;28;20420;-69
2022/07/15 03:48:49;;;;;;;14.23;11.75;;;;;;;;;;10046703;28;20085;-69
2022/07/15 03:53:43;;;;;;;13.77;11.93;;;;;;;;;;10032103;28;20140;-69
2022/07/15 03:58:37;;;;;;;12.15;11.05;;;;;;;;;;10024302;28;20084;-68
2022/07/15 04:03:29;;;;;;;12.75;11.55;;;;;;;;;;10005226;28;20059;-68
2022/07/15 04:08:23;;;;;;;11.45;10.45;;;;;;;;;;10037060;28;20049;-68
2022/07/15 04:13:18;;;;;;;11.93;10.93;;;;;;;;;;10027407;28;20476;-68
2022/07/15 04:18:13;;;;;;;11.05;9.95;;;;;;;;;;10015036;28;20057;-68
2022/07/15 04:23:06;;;;;;;11.60;8.77;;;;;;;;;;10024887;28;20073;-68
2022/07/15 04:28:01;;;;;;;15.65;7.35;;;;;;;;;;10029427;28;20084;-69
2022/07/15 04:32:57;;;;;;;7.05;6.43;;;;;;;;;;10019084;28;20051;-68
2022/07/15 04:37:53;;;;;;;9.63;6.38;;;;;;;;;;10034395;28;20054;-68
2022/07/15 04:42:47;;;;;;;12.70;6.97;;;;;;;;;;10022532;28;20513;-68
2022/07/15 04:47:42;;;;;;;8.32;7.53;;;;;;;;;;10041077;28;20059;-68
2022/07/15 04:52:45;;;;;;;7.65;6.80;;;;;;;;;;10033509;28;20417;-69
2022/07/15 04:57:42;;;;;;;13.20;6.93;;;;;;;;;;10036727;28;20084;-68
2022/07/15 05:02:36;;;;;;;12.18;5.57;;;;;;;;;;10039650;28;20132;-68
2022/07/15 05:07:30;;;;;;;16.25;4.25;;;;;;;;;;10021986;28;20093;-68
2022/07/15 05:12:24;;;;;;;4.75;3.17;;;;;;;;;;10019878;28;20146;-68
2022/07/15 05:17:21;;;;;;;6.40;3.25;;;;;;;;;;10026546;28;20053;-68
2022/07/15 05:22:19;;;;;;;4.63;2.90;;;;;;;;;;10038822;28;20049;-70
2022/07/15 05:27:12;;;;;;;10.85;3.67;;;;;;;;;;10038051;28;20527;-68
2022/07/15 05:32:08;;;;;;;5.75;2.92;;;;;;;;;;10037368;28;20058;-70
2022/07/15 05:37:03;;;;;;;8.38;3.20;;;;;;;;;;10036508;28;20041;-70
2022/07/15 05:41:58;;;;;;;8.80;3.13;;;;;;;;;;10063582;28;20060;-70
2022/07/15 05:46:54;;;;;;;5.45;3.40;;;;;;;;;;10020798;28;20049;-69
2022/07/15 05:51:48;;;;;;;7.90;3.00;;;;;;;;;;10035779;28;20050;-68
2022/07/15 05:56:43;;;;;;;9.10;3.42;;;;;;;;;;10031031;28;20165;-68
2022/07/15 06:01:44;;;;;;;7.30;3.35;;;;;;;;;;10014791;28;20134;-68
2022/07/15 06:06:38;;;;;;;5.65;2.97;;;;;;;;;;10010589;28;20064;-67
2022/07/15 06:11:33;;;;;;;5.90;3.10;;;;;;;;;;10012415;28;20042;-67
2022/07/15 06:16:30;;;;;;;7.60;3.33;;;;;;;;;;10015775;28;20117;-67
2022/07/15 06:21:26;;;;;;;4.10;3.70;;;;;;;;;;10018429;28;20413;-70
2022/07/15 06:26:20;;;;;;;9.48;4.65;;;;;;;;;;10035537;28;20120;-68
2022/07/15 06:31:14;;;;;;;5.35;3.83;;;;;;;;;;10029863;28;20145;-63
2022/07/15 06:36:08;;;;;;;7.63;4.18;;;;;;;;;;10032737;28;20094;-67
2022/07/15 06:41:03;;;;;;;8.68;5.10;;;;;;;;;;10018628;28;20140;-67
2022/07/15 06:45:57;;;;;;;6.18;5.03;;;;;;;;;;10035078;28;20042;-67
2022/07/15 06:50:51;;;;;;;9.05;5.35;;;;;;;;;;10028614;28;20074;-67
2022/07/15 06:55:44;;;;;;;5.95;4.90;;;;;;;;;;10024866;28;20046;-70
2022/07/15 07:00:37;;;;;;;9.82;4.28;;;;;;;;;;10025528;28;20129;-67
2022/07/15 07:05:31;;;;;;;10.13;5.40;;;;;;;;;;10015165;28;20460;-67
2022/07/15 07:10:26;;;;;;;9.50;4.65;;;;;;;;;;10010224;28;20151;-67
2022/07/15 07:15:21;;;;;;;7.07;5.03;;;;;;;;;;10021587;28;20056;-66
2022/07/15 07:20:15;;;;;;;8.63;5.10;;;;;;;;;;10009418;28;20108;-67
2022/07/15 07:25:09;;;;;;;9.02;5.40;;;;;;;;;;10005931;28;20054;-67
2022/07/15 07:30:07;;;;;;;10.85;4.75;;;;;;;;;;10029234;28;20046;-67
2022/07/15 07:35:02;;;;;;;6.35;3.80;;;;;;;;;;10013705;28;20425;-66
2022/07/15 07:39:56;;;;;;;9.63;5.13;;;;;;;;;;9997853;28;20081;-67
2022/07/15 07:44:50;;;;;;;12.40;4.55;;;;;;;;;;10020012;28;20061;-66
2022/07/15 07:49:44;;;;;;;6.95;4.18;;;;;;;;;;9999816;28;20050;-66
2022/07/15 07:54:37;;;;;;;5.10;4.50;;;;;;;;;;10006766;28;20454;-67
2022/07/15 07:59:31;;;;;;;7.28;5.18;;;;;;;;;;10015041;28;20496;-66
2022/07/15 08:04:28;;;;;;;;;;;;;;;;;;10018709;28;20050;-67
2022/07/15 08:09:21;;;;;;;6.63;4.47;;;;;;;;;;10007020;28;20529;-66
2022/07/15 08:14:15;;;;;;;6.68;4.38;;;;;;;;;;10000591;28;20046;-67
2022/07/15 08:19:15;;;;;;;6.63;4.85;;;;;;;;;;10023711;28;20057;-68
2022/07/15 08:24:08;;;;;;;12.75;4.53;;;;;;;;;;10023241;28;20060;-68
2022/07/15 08:29:01;;;;;;;6.75;4.47;;;;;;;;;;10030430;28;20088;-69
2022/07/15 08:33:58;;;;;;;5.28;4.10;;;;;;;;;;10026881;28;20477;-71
2022/07/15 08:38:51;;;;;;;7.75;4.40;;;;;;;;;;10030965;28;20053;-73
2022/07/15 08:43:45;;;;;;;9.32;4.68;;;;;;;;;;10030778;28;20056;-72
2022/07/15 08:48:40;;;;;;;6.65;3.80;;;;;;;;;;10028340;28;20053;-72
2022/07/15 08:53:35;;;;;;;5.68;4.22;;;;;;;;;;10027948;28;20042;-71
2022/07/15 08:58:29;;;;;;;8.23;4.18;;;;;;;;;;10003119;28;20137;-68
2022/07/15 09:03:44;;;;;;;8.27;4.22;;;;;;;;;;10014042;28;20069;-68
2022/07/15 09:08:38;;;;;;;8.82;4.07;;;;;;;;;;10004855;28;20073;-69
2022/07/15 09:13:33;;;;;;;7.82;4.22;;;;;;;;;;9999944;28;20128;-69
2022/07/15 09:18:33;;;;;;;6.80;3.58;;;;;;;;;;10030048;28;21044;-69
2022/07/15 09:23:31;;;;;;;7.00;4.20;;;;;;;;;;10037526;28;20056;-69
2022/07/15 09:28:37;;;;;;;9.88;4.57;;;;;;;;;;10023995;28;20058;-69
2022/07/15 09:33:39;;;;;;;6.15;4.20;;;;;;;;;;10025644;28;20058;-69
2022/07/15 09:38:34;;;;;;;10.43;4.15;;;;;;;;;;10052797;28;20416;-69
2022/07/15 09:43:28;;;;;;;27.17;4.10;;;;;;;;;;10042573;28;20050;-69
2022/07/15 09:48:21;;;;;;;3.42;3.13;;;;;;;;;;10022016;28;20050;-69
2022/07/15 09:53:14;;;;;;;3.50;3.15;;;;;;;;;;10054429;28;20046;-69
2022/07/15 09:58:08;;;;;;;8.30;4.07;;;;;;;;;;10035755;28;20050;-69
2022/07/15 10:03:03;;;;;;;7.68;3.50;;;;;;;;;;10045512;28;20136;-69
2022/07/15 10:07:59;;;;;;;6.07;3.78;;;;;;;;;;10043605;28;20047;-69
2022/07/15 10:12:58;;;;;;;6.32;3.45;;;;;;;;;;10025608;28;20133;-69
2022/07/15 10:18:09;;;;;;;7.85;3.85;;;;;;;;;;10047239;28;20041;-69
2022/07/15 10:23:22;;;;;;;4.03;3.42;;;;;;;;;;10020401;28;20048;-70
2022/07/15 10:28:29;;;;;;;7.45;3.30;;;;;;;;;;10043821;28;20053;-69
2022/07/15 10:33:22;;;;;;;5.32;3.78;;;;;;;;;;10020179;28;20058;-70
2022/07/15 10:38:38;;;;;;;11.10;4.00;;;;;;;;;;10046486;28;20054;-69
2022/07/15 10:43:43;;;;;;;6.57;3.70;;;;;;;;;;10059229;28;20049;-69
2022/07/15 10:48:36;;;;;;;5.43;2.80;;;;;;;;;;10051207;28;20054;-69
2022/07/15 10:53:30;;;;;;;8.13;3.03;;;;;;;;;;10020107;28;20058;-70
2022/07/15 10:58:25;;;;;;;8.90;3.03;;;;;;;;;;10039206;28;20493;-70
2022/07/15 11:03:20;;;;;;;11.43;3.28;;;;;;;;;;10033840;28;20413;-70
2022/07/15 11:08:31;;;;;;;9.27;3.75;;;;;;;;;;10051561;28;20056;-70
2022/07/15 11:13:35;;;;;;;6.45;3.03;;;;;;;;;;10002928;28;20536;-70
2022/07/15 11:18:29;;;;;;;13.13;4.82;;;;;;;;;;10013162;28;20050;-69
2022/07/15 11:23:31;;;;;;;10.40;3.60;;;;;;;;;;10020780;28;20505;-69
2022/07/15 11:28:26;;;;;;;8.02;3.58;;;;;;;;;;10028676;28;20070;-70
2022/07/15 11:33:25;;;;;;;9.95;3.78;;;;;;;;;;10024659;28;20128;-69
2022/07/15 11:38:24;;;;;;;13.55;3.15;;;;;;;;;;10030151;28;20058;-70
2022/07/15 11:48:38;;;;;;;6.00;3.10;;;;;;;;;;10022664;28;20049;-70
2022/07/15 11:53:55;;;;;;;11.13;3.30;;;;;;;;;;10055374;28;20049;-70
2022/07/15 11:58:53;;;;;;;7.35;3.13;;;;;;;;;;10051115;28;20088;-70
2022/07/15 12:03:50;;;;;;;6.10;4.30;;;;;;;;;;10028979;28;20109;-70
2022/07/15 12:08:49;;;;;;;39.97;5.15;;;;;;;;;;10024043;28;20054;-70
2022/07/15 12:13:47;;;;;;;3.90;2.80;;;;;;;;;;10045091;28;20049;-70
2022/07/15 12:18:42;;;;;;;6.03;3.03;;;;;;;;;;10029090;28;20045;-70
2022/07/15 12:23:37;;;;;;;6.37;2.80;;;;;;;;;;10021016;28;20054;-70
2022/07/15 12:28:31;;;;;;;6.70;2.97;;;;;;;;;;10027939;28;20081;-69
2022/07/15 12:33:24;;;;;;;7.00;2.83;;;;;;;;;;10033250;28;20076;-70
2022/07/15 12:38:28;;;;;;;3.40;2.65;;;;;;;;;;10025152;28;20484;-70
2022/07/15 12:43:22;;;;;;;4.50;2.45;;;;;;;;;;10031446;28;20057;-70
2022/07/15 12:48:22;;;;;;;7.50;2.50;;;;;;;;;;10023142;28;20077;-69
2022/07/15 12:53:17;;;;;;;5.90;2.53;;;;;;;;;;10054532;28;20085;-70
2022/07/15 12:58:15;;;;;;;3.73;3.20;;;;;;;;;;10051204;28;20417;-70
2022/07/15 13:03:18;;;;;;;6.30;2.85;;;;;;;;;;10043419;28;20123;-69
2022/07/15 13:08:19;;;;;;;5.35;3.08;;;;;;;;;;10032980;28;20100;-70
2022/07/15 13:13:15;;;;;;;5.35;2.75;;;;;;;;;;10015644;28;20042;-70
2022/07/15 13:18:10;;;;;;;7.32;2.70;;;;;;;;;;10027381;28;20046;-72
2022/07/15 13:23:04;;;;;;;5.25;2.50;;;;;;;;;;10043319;28;20050;-72
2022/07/15 13:27:58;;;;;;;7.22;2.30;;;;;;;;;;10017570;28;20065;-73
2022/07/15 13:38:17;;;;;;;8.70;2.77;;;;;;;;;;10027886;28;20128;-73
2022/07/15 13:43:11;;;;;;;4.70;2.13;;;;;;;;;;10037315;28;20069;-73
2022/07/15 13:48:06;;;;;;;4.82;2.50;;;;;;;;;;10031446;28;20109;-73
2022/07/15 13:53:00;;;;;;;8.07;2.67;;;;;;;;;;10026413;28;20046;-72
2022/07/15 13:57:53;;;;;;;2.80;2.38;;;;;;;;;;10035061;28;20042;-78
2022/07/15 14:02:48;;;;;;;6.88;2.47;;;;;;;;;;10057231;28;20085;-72
2022/07/15 14:07:43;;;;;;;5.17;2.33;;;;;;;;;;10034948;28;20107;-72
2022/07/15 14:12:37;;;;;;;3.23;2.20;;;;;;;;;;10022407;28;20120;-72
2022/07/15 14:17:31;;;;;;;3.38;2.25;;;;;;;;;;10019697;28;20065;-70
2022/07/15 14:22:26;;;;;;;5.22;2.20;;;;;;;;;;9997492;28;20050;-72
2022/07/15 14:27:19;;;;;;;4.43;2.20;;;;;;;;;;10004999;28;20108;-71
2022/07/15 14:32:14;;;;;;;3.60;1.90;;;;;;;;;;10004222;28;20074;-71
2022/07/15 14:37:07;;;;;;;7.57;1.90;;;;;;;;;;10009572;28;20050;-72
2022/07/15 14:42:21;;;;;;;7.53;2.95;;;;;;;;;;10000910;28;20046;-72
2022/07/15 14:47:14;;;;;;;5.63;2.33;;;;;;;;;;9994844;28;20493;-72
2022/07/15 14:52:08;;;;;;;4.82;2.15;;;;;;;;;;9997649;28;20164;-71
2022/07/15 14:57:06;;;;;;;2.65;2.33;;;;;;;;;;9997291;28;20046;-67
2022/07/15 15:02:00;;;;;;;5.33;2.37;;;;;;;;;;9996950;28;20134;-67
2022/07/15 15:06:54;;;;;;;5.53;1.90;;;;;;;;;;9993045;28;20133;-69
2022/07/15 15:11:48;;;;;;;6.45;2.35;;;;;;;;;;9993602;28;20054;-69
2022/07/15 15:16:42;;;;;;;4.20;2.33;;;;;;;;;;10014918;28;20081;-68
2022/07/15 15:21:54;;;;;;;2.60;2.10;;;;;;;;;;9997816;28;20096;-68
2022/07/15 15:26:50;;;;;;;4.82;2.10;;;;;;;;;;9998415;28;20073;-68
2022/07/15 15:31:43;;;;;;;7.60;2.13;;;;;;;;;;9998177;28;20046;-71
2022/07/15 15:36:37;;;;;;;3.90;2.33;;;;;;;;;;10008171;28;20452;-71
2022/07/15 15:41:33;;;;;;;4.50;2.33;;;;;;;;;;9999469;28;20125;-67
2022/07/15 15:46:27;;;;;;;3.53;2.50;;;;;;;;;;10038747;28;20379;-68
2022/07/15 15:51:20;;;;;;;7.20;2.00;;;;;;;;;;10040228;28;20056;-67
2022/07/15 15:56:13;;;;;;;20.08;3.13;;;;;;;;;;10035827;28;20075;-65
2022/07/15 16:01:07;;;;;;;3.03;2.42;;;;;;;;;;10020409;28;20050;-66
2022/07/15 16:06:01;;;;;;;6.68;2.53;;;;;;;;;;10047613;28;20049;-66
2022/07/15 16:10:57;;;;;;;5.70;2.28;;;;;;;;;;10014544;28;20137;-66
2022/07/15 16:15:51;;;;;;;3.45;2.17;;;;;;;;;;10050697;28;20059;-67
2022/07/15 16:20:45;;;;;;;5.22;2.33;;;;;;;;;;10020186;28;20079;-80
2022/07/15 16:25:38;;;;;;;4.15;2.50;;;;;;;;;;10000073;28;20446;-71
2022/07/15 16:30:31;;;;;;;8.02;2.45;;;;;;;;;;10009609;28;20054;-70
2022/07/15 16:35:27;;;;;;;5.47;2.35;;;;;;;;;;10032504;28;20049;-69
2022/07/15 16:40:21;;;;;;;4.67;2.47;;;;;;;;;;10029465;28;20057;-70
2022/07/15 16:45:16;;;;;;;5.80;2.60;;;;;;;;;;10016309;28;20049;-71
2022/07/15 16:50:09;;;;;;;6.68;2.40;;;;;;;;;;10025203;28;20717;-70
2022/07/15 16:55:05;;;;;;;9.13;2.17;;;;;;;;;;10022932;28;20416;-70
2022/07/15 16:59:59;;;;;;;5.93;2.47;;;;;;;;;;10041859;28;20108;-69
2022/07/15 17:04:53;;;;;;;6.72;2.40;;;;;;;;;;10026550;28;20053;-69
2022/07/15 17:09:47;;;;;;;3.45;3.15;;;;;;;;;;10042798;28;20168;-69
2022/07/15 17:14:40;;;;;;;11.57;2.92;;;;;;;;;;10028440;28;20107;-69
2022/07/15 17:19:34;;;;;;;4.28;2.97;;;;;;;;;;10027932;28;20054;-69
2022/07/15 17:24:29;;;;;;;5.78;2.67;;;;;;;;;;10039827;28;20559;-69
2022/07/15 17:29:23;;;;;;;2.42;2.25;;;;;;;;;;10036897;28;20076;-69
2022/07/15 17:34:17;;;;;;;3.78;2.45;;;;;;;;;;10045941;28;20405;-69
2022/07/15 17:39:10;;;;;;;3.88;3.53;;;;;;;;;;10060764;28;20056;-69
2022/07/15 17:44:04;;;;;;;6.55;2.50;;;;;;;;;;10027834;28;20128;-68
2022/07/15 17:48:58;;;;;;;4.43;2.70;;;;;;;;;;10036271;28;20046;-68
2022/07/15 17:53:51;;;;;;;6.05;2.78;;;;;;;;;;10035955;28;20394;-68
2022/07/15 17:58:46;;;;;;;6.03;3.33;;;;;;;;;;10017776;28;20046;-68
2022/07/15 18:03:40;;;;;;;8.38;3.30;;;;;;;;;;10020854;28;20089;-68
2022/07/15 18:08:33;;;;;;;10.13;2.88;;;;;;;;;;10022470;28;20077;-68
2022/07/15 18:13:26;;;;;;;8.90;3.53;;;;;;;;;;10010908;28;20441;-67
2022/07/15 18:18:20;;;;;;;11.93;3.92;;;;;;;;;;10046375;28;20076;-67
2022/07/15 18:23:14;;;;;;;9.88;3.10;;;;;;;;;;10045702;28;20401;-67
2022/07/15 18:28:09;;;;;;;6.00;3.38;;;;;;;;;;10045312;28;20045;-67
2022/07/15 18:33:03;;;;;;;11.55;3.88;;;;;;;;;;10042668;28;20060;-67
2022/07/15 18:37:57;;;;;;;4.43;3.08;;;;;;;;;;10061829;28;20050;-67
2022/07/15 18:42:51;;;;;;;6.10;3.78;;;;;;;;;;10037672;28;20063;-67
2022/07/15 18:47:46;;;;;;;6.38;3.45;;;;;;;;;;10043579;28;20128;-67
2022/07/15 18:52:38;;;;;;;10.10;3.20;;;;;;;;;;10038217;28;20078;-67
2022/07/15 18:57:32;;;;;;;13.15;3.97;;;;;;;;;;10049841;28;20093;-67
2022/07/15 19:02:26;;;;;;;10.55;3.65;;;;;;;;;;10045759;28;20092;-68
2022/07/15 19:07:20;;;;;;;13.30;3.50;;;;;;;;;;10052886;28;20065;-68
2022/07/15 19:12:14;;;;;;;12.32;3.72;;;;;;;;;;10023781;28;20053;-69
2022/07/15 19:17:10;;;;;;;11.52;3.35;;;;;;;;;;10037416;28;20422;-69
2022/07/15 19:22:06;;;;;;;7.38;2.95;;;;;;;;;;10049049;28;20080;-69
2022/07/15 19:27:00;;;;;;;9.10;3.10;;;;;;;;;;10026475;28;20152;-69
2022/07/15 19:31:53;;;;;;;4.80;3.22;;;;;;;;;;10035024;28;20056;-68
2022/07/15 19:36:46;;;;;;;8.77;3.90;;;;;;;;;;10023171;28;20054;-68
2022/07/15 19:41:40;;;;;;;5.85;3.80;;;;;;;;;;10044666;28;20053;-68
2022/07/15 19:46:33;;;;;;;6.00;3.42;;;;;;;;;;10031570;28;20049;-68
2022/07/15 19:51:28;;;;;;;9.93;3.17;;;;;;;;;;10051746;28;20551;-69
2022/07/15 19:56:23;;;;;;;6.10;3.45;;;;;;;;;;10047233;28;20148;-68
2022/07/15 20:01:17;;;;;;;8.48;4.25;;;;;;;;;;10031119;28;20065;-69
2022/07/15 20:06:11;;;;;;;9.27;5.82;;;;;;;;;;10050078;28;20128;-68
2022/07/15 20:11:06;;;;;;;14.75;8.63;;;;;;;;;;10057309;28;20139;-68
2022/07/15 20:16:01;;;;;;;16.38;6.22;;;;;;;;;;10010963;28;20066;-69
2022/07/15 20:20:55;;;;;;;9.93;5.15;;;;;;;;;;10023191;28;20045;-69
2022/07/15 20:25:49;;;;;;;9.20;3.72;;;;;;;;;;10032383;28;20092;-68
2022/07/15 20:30:42;;;;;;;10.77;5.13;;;;;;;;;;10025763;28;20080;-68
2022/07/15 20:35:38;;;;;;;8.45;5.32;;;;;;;;;;10016609;28;20382;-68
2022/07/15 20:40:32;;;;;;;12.53;5.27;;;;;;;;;;10012165;28;20082;-68
2022/07/15 20:45:25;;;;;;;10.65;4.85;;;;;;;;;;10026054;28;20089;-68
2022/07/15 20:50:19;;;;;;;8.48;4.55;;;;;;;;;;10057854;28;20068;-69
2022/07/15 20:55:13;;;;;;;24.58;7.53;;;;;;;;;;10044657;28;20050;-67
2022/07/15 21:00:09;;;;;;;12.68;5.00;;;;;;;;;;10025387;28;20062;-67
2022/07/15 21:05:04;;;;;;;5.50;5.00;;;;;;;;;;10031272;28;20050;-67
2022/07/15 21:09:58;;;;;;;16.00;5.53;;;;;;;;;;10025344;28;20109;-67
2022/07/15 21:14:52;;;;;;;10.82;4.95;;;;;;;;;;10018916;28;20097;-68
2022/07/15 21:19:46;;;;;;;11.13;5.00;;;;;;;;;;10044233;28;20046;-67
2022/07/15 21:29:52;;;;;;;8.35;4.85;;;;;;;;;;10036064;28;20050;-67
2022/07/15 21:34:46;;;;;;;13.52;4.55;;;;;;;;;;10041499;28;20050;-68
2022/07/15 21:39:40;;;;;;;8.15;3.95;;;;;;;;;;10050911;28;20060;-68
2022/07/15 21:44:34;;;;;;;10.02;4.20;;;;;;;;;;10055496;28;21694;-68
2022/07/15 21:49:29;;;;;;;8.93;4.72;;;;;;;;;;10026330;28;20047;-67
2022/07/15 21:54:24;;;;;;;10.85;4.13;;;;;;;;;;10033088;28;20552;-69
2022/07/15 21:59:19;;;;;;;5.38;3.60;;;;;;;;;;10027816;28;20069;-69
2022/07/15 22:04:13;;;;;;;7.47;3.83;;;;;;;;;;10037130;28;20055;-69
2022/07/15 22:09:08;;;;;;;6.07;3.60;;;;;;;;;;10043426;28;20058;-70
2022/07/15 22:14:03;;;;;;;8.82;3.60;;;;;;;;;;10032444;28;20069;-69
2022/07/15 22:18:57;;;;;;;8.05;3.72;;;;;;;;;;10023886;28;20053;-69
2022/07/15 22:23:51;;;;;;;5.95;3.42;;;;;;;;;;10027179;28;20653;-68
2022/07/15 22:28:45;;;;;;;10.63;3.70;;;;;;;;;;10027886;28;20050;-69
2022/07/15 22:33:39;;;;;;;7.15;3.92;;;;;;;;;;10030669;28;20415;-71
2022/07/15 22:50:54;;;;;;;9.80;4.07;;;;;;;;;;10158018;27;20433;-67
2022/07/15 22:55:49;;;;;;;9.43;3.20;;;;;;;;;;10158976;28;20420;-66
2022/07/15 23:00:42;;;;;;;11.07;4.00;;;;;;;;;;10147442;28;20493;-66
2022/07/15 23:05:36;;;;;;;12.20;4.93;;;;;;;;;;10153979;28;20052;-67
2022/07/15 23:10:30;;;;;;;7.03;4.32;;;;;;;;;;10175763;28;20068;-67
2022/07/15 23:15:24;;;;;;;6.78;4.90;;;;;;;;;;10172589;28;20040;-67
2022/07/15 23:20:17;;;;;;;11.35;5.18;;;;;;;;;;10158812;28;20561;-66
2022/07/15 23:25:11;;;;;;;9.07;6.05;;;;;;;;;;10167794;28;20488;-66
2022/07/15 23:30:06;;;;;;;7.07;5.25;;;;;;;;;;10173808;28;20048;-67
2022/07/15 23:35:01;;;;;;;7.68;5.22;;;;;;;;;;10166989;28;20048;-67
2022/07/15 23:39:55;;;;;;;9.98;5.28;;;;;;;;;;10177516;28;20052;-66
2022/07/15 23:44:49;;;;;;;6.82;4.95;;;;;;;;;;10171338;28;20123;-67
2022/07/15 23:49:42;;;;;;;7.35;5.32;;;;;;;;;;10160404;28;20061;-67
2022/07/15 23:54:36;;;;;;;11.68;6.95;;;;;;;;;;10131335;28;20048;-67
